Time;durP1;ratioP1;P1;durP2;ratioP2;P2;SDS_P1;SDS_P2;PMS_P1;PMS_P2;Temp;Humidity;BMP_temperature;BMP_pressure;BME280_temperature;BME280_humidity;BME280_pressure;Samples;Min_cycle;Max_cycle;Signal;HPM_P1;HPM_P2
2022/02/01 00:00:54;;;;;;;;;;;;;;;;;;348541;28;1016;-75
2022/02/01 00:01:16;;;;;;;;;;;;;;;;;;348585;28;854;-76
2022/02/01 00:01:35;;;;;;;;;;;;;;;;;;348265;28;1793;-75
2022/02/01 00:01:51;;;;;;;;;;;;;;;;;;347941;28;1861;-75
2022/02/01 00:02:06;;;;;;;;;;;;;;;;;;352873;28;943;-76
2022/02/01 00:02:27;;;;;;;;;;;;;;;;;;352910;28;897;-76
2022/02/01 00:02:46;;;;;;;;;;;;;;;;;;352825;28;1015;-76
2022/02/01 00:03:00;;;;;;;;;;;;;;;;;;352937;28;908;-76
2022/02/01 00:03:14;;;;;;;;;;;;;;;;;;352905;28;1000;-76
2022/02/01 00:03:28;;;;;;;;;;;;;;;;;;352898;28;939;-76
2022/02/01 00:03:41;;;;;;;;;;;;;;;;;;351567;28;1852;-76
2022/02/01 00:03:55;;;;;;;;;;;;;;;;;;351540;28;1031;-76
2022/02/01 00:04:14;;;;;;;;;;;;;;;;;;351408;28;1062;-76
2022/02/01 00:05:12;;;;;;;;;;;;;;;;;;348500;28;1051;-76
2022/02/01 00:05:46;;;;;;;;;;;;;;;;;;348252;28;1892;-76
2022/02/01 00:06:09;;;;;;;;;;;;;;;;;;351491;28;1000;-76
2022/02/01 00:06:27;;;;;;;;;;;;;;;;;;351444;28;940;-76
2022/02/01 00:07:09;;;;;;;;;;;;;;;;;;351454;28;740;-76
2022/02/01 00:07:20;;;;;;;;;;;;;;;;;;350888;28;987;-76
2022/02/01 00:08:11;;;;;;;;;;;;;;;;;;352185;28;1854;-76
2022/02/01 00:08:36;;;;;;;;;;;;;;;;;;351456;28;1984;-76
2022/02/01 00:09:05;;;;;;;;;;;;;;;;;;351479;28;1511;-76
2022/02/01 00:09:56;;;;;;;;;;;;;;;;;;351467;28;995;-76
2022/02/01 00:10:16;;;;;;;;;;;;;;;;;;351495;28;992;-76
2022/02/01 00:11:14;;;;;;;;;;;;;;;;;;349865;28;1048;-76
2022/02/01 00:11:46;;;;;;;;;;;;;;;;;;349990;28;888;-76
2022/02/01 00:12:14;;;;;;;;;;;;;;;;;;351235;28;1760;-76
2022/02/01 00:12:41;;;;;;;;;;;;;;;;;;352888;28;940;-76
2022/02/01 00:13:06;;;;;;;;;;;;;;;;;;352911;28;884;-76
2022/02/01 00:13:33;;;;;;;;;;;;;;;;;;352847;28;998;-76
2022/02/01 00:14:11;;;;;;;;;;;;;;;;;;351444;28;945;-76
2022/02/01 00:15:17;;;;;;;;;;;;;;;;;;348479;28;996;-76
2022/02/01 00:15:23;;;;;;;;;;;;;;;;;;351324;28;1899;-76
2022/02/01 00:16:47;;;;;;;;;;;;;;;;;;352902;28;857;-76
2022/02/01 00:18:08;;;;;;;;;;;;;;;;;;352864;28;960;-76
2022/02/01 00:19:00;;;;;;;;;;;;;;;;;;347321;28;1026;-76
2022/02/01 00:20:04;;;;;;;;;;;;;;;;;;351343;28;1844;-76
2022/02/01 00:20:47;;;;;;;;;;;;;;;;;;351476;28;887;-76
2022/02/01 00:34:13;;;;;;;;;;;;;;;;;;351385;28;936;-76
2022/02/01 00:35:11;;;;;;;;;;;;;;;;;;351477;28;960;-76
2022/02/01 00:35:46;;;;;;;;;;;;;;;;;;351433;28;933;-76
2022/02/01 00:36:35;;;;;;;;;;;;;;;;;;351451;28;921;-76
2022/02/01 00:36:50;;;;;;;;;;;;;;;;;;351347;28;1021;-76
2022/02/01 00:37:05;;;;;;;;;;;;;;;;;;351439;28;940;-76
2022/02/01 00:37:20;;;;;;;;;;;;;;;;;;351288;28;998;-76
2022/02/01 00:37:34;;;;;;;;;;;;;;;;;;351177;28;936;-76
2022/02/01 00:38:22;;;;;;;;;;;;;;;;;;352117;28;1327;-76
2022/02/01 00:38:30;;;;;;;;;;;;;;;;;;350113;28;1072;-76
2022/02/01 00:38:52;;;;;;;;;;;;;;;;;;351506;28;920;-76
2022/02/01 00:39:07;;;;;;;;;;;;;;;;;;351432;28;960;-76
2022/02/01 00:39:18;;;;;;;;;;;;;;;;;;351435;28;822;-76
2022/02/01 00:39:31;;;;;;;;;;;;;;;;;;351409;28;964;-76
2022/02/01 00:39:45;;;;;;;;;;;;;;;;;;351452;28;1035;-76
2022/02/01 00:39:58;;;;;;;;;;;;;;;;;;351466;28;899;-76
2022/02/01 00:40:12;;;;;;;;;;;;;;;;;;351459;28;936;-76
2022/02/01 00:40:23;;;;;;;;;;;;;;;;;;351415;28;1223;-76
2022/02/01 00:40:33;;;;;;;;;;;;;;;;;;351440;28;1003;-75
2022/02/01 00:40:52;;;;;;;;;;;;;;;;;;351415;28;911;-76
2022/02/01 00:41:06;;;;;;;;;;;;;;;;;;351460;28;848;-76
2022/02/01 00:41:18;;;;;;;;;;;;;;;;;;351455;28;932;-76
2022/02/01 00:41:33;;;;;;;;;;;;;;;;;;351401;28;947;-76
2022/02/01 00:41:50;;;;;;;;;;;;;;;;;;351455;28;912;-76
2022/02/01 00:42:00;;;;;;;;;;;;;;;;;;351457;28;880;-76
2022/02/01 00:42:12;;;;;;;;;;;;;;;;;;351395;28;995;-76
2022/02/01 00:42:22;;;;;;;;;;;;;;;;;;351443;28;836;-76
2022/02/01 00:42:32;;;;;;;;;;;;;;;;;;351410;28;924;-76
2022/02/01 00:42:42;;;;;;;;;;;;;;;;;;351456;28;1004;-76
2022/02/01 00:42:52;;;;;;;;;;;;;;;;;;351457;28;912;-76
2022/02/01 00:43:03;;;;;;;;;;;;;;;;;;351455;28;852;-76
2022/02/01 00:43:13;;;;;;;;;;;;;;;;;;351399;28;1890;-76
2022/02/01 00:43:23;;;;;;;;;;;;;;;;;;351216;28;1850;-76
2022/02/01 00:43:33;;;;;;;;;;;;;;;;;;351364;28;992;-76
2022/02/01 00:43:44;;;;;;;;;;;;;;;;;;351459;28;908;-76
2022/02/01 00:43:54;;;;;;;;;;;;;;;;;;351418;28;924;-76
2022/02/01 00:44:04;;;;;;;;;;;;;;;;;;351407;28;940;-75
2022/02/01 00:44:16;;;;;;;;;;;;;;;;;;351419;28;987;-76
2022/02/01 00:44:27;;;;;;;;;;;;;;;;;;351447;28;888;-76
2022/02/01 00:44:37;;;;;;;;;;;;;;;;;;352085;28;1328;-76
2022/02/01 00:44:47;;;;;;;;;;;;;;;;;;352825;28;857;-76
2022/02/01 00:44:58;;;;;;;;;;;;;;;;;;352753;28;1219;-76
2022/02/01 00:45:08;;;;;;;;;;;;;;;;;;352675;28;1006;-76
2022/02/01 00:45:18;;;;;;;;;;;;;;;;;;352875;28;913;-76
2022/02/01 00:45:28;;;;;;;;;;;;;;;;;;352628;28;1274;-76
2022/02/01 00:45:39;;;;;;;;;;;;;;;;;;352772;28;794;-76
2022/02/01 00:45:49;;;;;;;;;;;;;;;;;;352393;28;1846;-75
2022/02/01 00:46:02;;;;;;;;;;;;;;;;;;351325;28;1799;-76
2022/02/01 00:46:12;;;;;;;;;;;;;;;;;;352839;28;817;-76
2022/02/01 00:46:22;;;;;;;;;;;;;;;;;;352859;28;927;-75
2022/02/01 00:46:34;;;;;;;;;;;;;;;;;;352846;28;845;-76
2022/02/01 00:46:44;;;;;;;;;;;;;;;;;;352763;28;1503;-76
2022/02/01 00:46:54;;;;;;;;;;;;;;;;;;352781;28;1435;-76
2022/02/01 00:47:05;;;;;;;;;;;;;;;;;;352868;28;990;-75
2022/02/01 00:47:16;;;;;;;;;;;;;;;;;;352844;28;995;-76
2022/02/01 00:47:26;;;;;;;;;;;;;;;;;;352835;28;911;-76
2022/02/01 00:47:36;;;;;;;;;;;;;;;;;;352572;28;1842;-75
2022/02/01 00:47:47;;;;;;;;;;;;;;;;;;351385;28;1000;-76
2022/02/01 00:47:57;;;;;;;;;;;;;;;;;;351416;28;980;-76
2022/02/01 00:48:07;;;;;;;;;;;;;;;;;;351254;28;1950;-75
2022/02/01 00:48:17;;;;;;;;;;;;;;;;;;351350;28;1795;-76
2022/02/01 00:48:28;;;;;;;;;;;;;;;;;;352518;28;1935;-76
2022/02/01 00:48:39;;;;;;;;;;;;;;;;;;352801;28;888;-76
2022/02/01 00:48:49;;;;;;;;;;;;;;;;;;352857;28;802;-76
2022/02/01 00:49:00;;;;;;;;;;;;;;;;;;352855;28;935;-76
2022/02/01 00:49:10;;;;;;;;;;;;;;;;;;352786;28;928;-76
2022/02/01 00:49:20;;;;;;;;;;;;;;;;;;352874;28;790;-76
2022/02/01 00:49:33;;;;;;;;;;;;;;;;;;352816;28;920;-76
2022/02/01 00:49:43;;;;;;;;;;;;;;;;;;352842;28;936;-76
2022/02/01 00:49:53;;;;;;;;;;;;;;;;;;352733;28;1039;-76
2022/02/01 00:50:04;;;;;;;;;;;;;;;;;;352853;28;920;-76
2022/02/01 00:50:16;;;;;;;;;;;;;;;;;;352817;28;979;-76
2022/02/01 00:50:26;;;;;;;;;;;;;;;;;;352823;28;983;-76
2022/02/01 00:50:36;;;;;;;;;;;;;;;;;;352764;28;936;-75
2022/02/01 00:50:46;;;;;;;;;;;;;;;;;;352818;28;871;-76
2022/02/01 00:50:57;;;;;;;;;;;;;;;;;;352857;28;955;-76
2022/02/01 00:51:11;;;;;;;;;;;;;;;;;;352829;28;960;-76
2022/02/01 00:51:21;;;;;;;;;;;;;;;;;;352860;28;939;-76
2022/02/01 00:51:32;;;;;;;;;;;;;;;;;;352769;28;912;-76
2022/02/01 00:51:42;;;;;;;;;;;;;;;;;;352820;28;1257;-76
2022/02/01 00:51:52;;;;;;;;;;;;;;;;;;352828;28;925;-76
2022/02/01 00:52:03;;;;;;;;;;;;;;;;;;352806;28;810;-76
2022/02/01 00:52:13;;;;;;;;;;;;;;;;;;352778;28;775;-76
2022/02/01 00:52:25;;;;;;;;;;;;;;;;;;352454;28;1886;-75
2022/02/01 00:52:36;;;;;;;;;;;;;;;;;;351400;28;1835;-75
2022/02/01 00:52:46;;;;;;;;;;;;;;;;;;352827;28;943;-76
2022/02/01 00:52:56;;;;;;;;;;;;;;;;;;352769;28;1015;-76
2022/02/01 00:53:06;;;;;;;;;;;;;;;;;;352081;28;1779;-76
2022/02/01 00:53:21;;;;;;;;;;;;;;;;;;351458;28;866;-76
2022/02/01 00:53:32;;;;;;;;;;;;;;;;;;351409;28;852;-76
2022/02/01 00:53:43;;;;;;;;;;;;;;;;;;351414;28;948;-76
2022/02/01 00:53:53;;;;;;;;;;;;;;;;;;351438;28;988;-76
2022/02/01 00:54:03;;;;;;;;;;;;;;;;;;351477;28;1575;-76
2022/02/01 00:54:13;;;;;;;;;;;;;;;;;;352727;28;1527;-76
2022/02/01 00:54:24;;;;;;;;;;;;;;;;;;352909;28;932;-76
2022/02/01 00:54:37;;;;;;;;;;;;;;;;;;352753;28;1965;-76
2022/02/01 00:54:47;;;;;;;;;;;;;;;;;;352843;28;943;-76
2022/02/01 00:54:58;;;;;;;;;;;;;;;;;;352791;28;856;-76
2022/02/01 00:55:08;;;;;;;;;;;;;;;;;;352817;28;967;-76
2022/02/01 00:55:19;;;;;;;;;;;;;;;;;;352821;28;972;-76
2022/02/01 00:55:29;;;;;;;;;;;;;;;;;;352828;28;916;-76
2022/02/01 00:55:39;;;;;;;;;;;;;;;;;;352807;28;915;-76
2022/02/01 00:55:49;;;;;;;;;;;;;;;;;;352880;28;888;-76
2022/02/01 00:56:00;;;;;;;;;;;;;;;;;;352759;28;1004;-76
2022/02/01 00:56:10;;;;;;;;;;;;;;;;;;352605;28;1124;-76
2022/02/01 00:56:20;;;;;;;;;;;;;;;;;;352847;28;912;-76
2022/02/01 00:56:31;;;;;;;;;;;;;;;;;;352761;28;983;-76
2022/02/01 00:56:41;;;;;;;;;;;;;;;;;;352826;28;943;-76
2022/02/01 00:56:51;;;;;;;;;;;;;;;;;;352836;28;924;-76
2022/02/01 00:57:02;;;;;;;;;;;;;;;;;;352850;28;979;-76
2022/02/01 00:57:13;;;;;;;;;;;;;;;;;;352841;28;971;-76
2022/02/01 00:57:23;;;;;;;;;;;;;;;;;;352797;28;940;-76
2022/02/01 00:57:34;;;;;;;;;;;;;;;;;;352869;28;837;-76
2022/02/01 00:57:44;;;;;;;;;;;;;;;;;;352801;28;944;-76
2022/02/01 00:57:54;;;;;;;;;;;;;;;;;;352836;28;804;-76
2022/02/01 00:58:05;;;;;;;;;;;;;;;;;;351998;28;1869;-76
2022/02/01 00:58:15;;;;;;;;;;;;;;;;;;351346;28;975;-76
2022/02/01 00:58:25;;;;;;;;;;;;;;;;;;351413;28;1051;-76
2022/02/01 00:58:36;;;;;;;;;;;;;;;;;;351417;28;983;-76
2022/02/01 00:58:46;;;;;;;;;;;;;;;;;;351426;28;865;-76
2022/02/01 00:58:57;;;;;;;;;;;;;;;;;;351450;28;956;-76
2022/02/01 00:59:07;;;;;;;;;;;;;;;;;;351340;28;993;-76
2022/02/01 00:59:17;;;;;;;;;;;;;;;;;;351454;28;952;-76
2022/02/01 00:59:27;;;;;;;;;;;;;;;;;;351243;28;995;-76
2022/02/01 00:59:38;;;;;;;;;;;;;;;;;;351468;28;912;-76
2022/02/01 00:59:48;;;;;;;;;;;;;;;;;;351404;28;802;-76
2022/02/01 00:59:58;;;;;;;;;;;;;;;;;;351359;28;957;-76
2022/02/01 01:00:10;;;;;;;;;;;;;;;;;;351419;28;865;-76
2022/02/01 01:00:21;;;;;;;;;;;;;;;;;;352676;28;1799;-76
2022/02/01 01:00:31;;;;;;;;;;;;;;;;;;352870;28;817;-75
2022/02/01 01:00:41;;;;;;;;;;;;;;;;;;352889;28;821;-76
2022/02/01 01:00:52;;;;;;;;;;;;;;;;;;352765;28;1007;-76
2022/02/01 01:01:03;;;;;;;;;;;;;;;;;;352827;28;944;-76
2022/02/01 01:01:14;;;;;;;;;;;;;;;;;;352831;28;979;-76
2022/02/01 01:01:24;;;;;;;;;;;;;;;;;;352837;28;932;-76
2022/02/01 01:01:34;;;;;;;;;;;;;;;;;;352904;28;928;-76
2022/02/01 01:01:44;;;;;;;;;;;;;;;;;;352770;28;794;-76
2022/02/01 01:01:55;;;;;;;;;;;;;;;;;;352838;28;917;-76
2022/02/01 01:02:05;;;;;;;;;;;;;;;;;;352830;28;944;-76
2022/02/01 01:02:15;;;;;;;;;;;;;;;;;;352633;28;1008;-76
2022/02/01 01:02:25;;;;;;;;;;;;;;;;;;352798;28;936;-76
2022/02/01 01:02:36;;;;;;;;;;;;;;;;;;352816;28;872;-76
2022/02/01 01:02:46;;;;;;;;;;;;;;;;;;351645;28;1772;-76
2022/02/01 01:02:57;;;;;;;;;;;;;;;;;;351404;28;865;-76
2022/02/01 01:03:07;;;;;;;;;;;;;;;;;;351436;28;984;-76
2022/02/01 01:03:17;;;;;;;;;;;;;;;;;;351404;28;960;-76
2022/02/01 01:03:27;;;;;;;;;;;;;;;;;;351407;28;928;-76
2022/02/01 01:03:38;;;;;;;;;;;;;;;;;;351446;28;942;-76
2022/02/01 01:03:48;;;;;;;;;;;;;;;;;;351253;28;1870;-75
2022/02/01 01:03:58;;;;;;;;;;;;;;;;;;351446;28;794;-76
2022/02/01 01:04:08;;;;;;;;;;;;;;;;;;351442;28;987;-76
2022/02/01 01:04:18;;;;;;;;;;;;;;;;;;351394;28;787;-76
2022/02/01 01:04:29;;;;;;;;;;;;;;;;;;351385;28;952;-76
2022/02/01 01:04:41;;;;;;;;;;;;;;;;;;351447;28;972;-76
2022/02/01 01:04:51;;;;;;;;;;;;;;;;;;351327;28;1945;-76
2022/02/01 01:05:02;;;;;;;;;;;;;;;;;;351405;28;1067;-76
2022/02/01 01:05:12;;;;;;;;;;;;;;;;;;351383;28;890;-76
2022/02/01 01:05:22;;;;;;;;;;;;;;;;;;351428;28;917;-76
2022/02/01 01:05:33;;;;;;;;;;;;;;;;;;351444;28;968;-76
2022/02/01 01:05:43;;;;;;;;;;;;;;;;;;351438;28;845;-76
2022/02/01 01:05:53;;;;;;;;;;;;;;;;;;351234;28;1023;-76
2022/02/01 01:06:04;;;;;;;;;;;;;;;;;;351393;28;921;-76
2022/02/01 01:06:14;;;;;;;;;;;;;;;;;;351654;28;1622;-76
2022/02/01 01:06:25;;;;;;;;;;;;;;;;;;352623;28;1138;-76
2022/02/01 01:06:36;;;;;;;;;;;;;;;;;;351866;28;1767;-76
2022/02/01 01:06:46;;;;;;;;;;;;;;;;;;351427;28;880;-76
2022/02/01 01:06:56;;;;;;;;;;;;;;;;;;351349;28;995;-76
2022/02/01 01:07:06;;;;;;;;;;;;;;;;;;351413;28;992;-76
2022/02/01 01:07:17;;;;;;;;;;;;;;;;;;351367;28;997;-76
2022/02/01 01:07:27;;;;;;;;;;;;;;;;;;351412;28;967;-76
2022/02/01 01:07:37;;;;;;;;;;;;;;;;;;351426;28;991;-76
2022/02/01 01:07:47;;;;;;;;;;;;;;;;;;351412;28;903;-76
2022/02/01 01:07:57;;;;;;;;;;;;;;;;;;351368;28;921;-76
2022/02/01 01:08:08;;;;;;;;;;;;;;;;;;351378;28;997;-76
2022/02/01 01:08:18;;;;;;;;;;;;;;;;;;352240;28;1373;-76
2022/02/01 01:08:28;;;;;;;;;;;;;;;;;;352799;28;925;-76
2022/02/01 01:08:40;;;;;;;;;;;;;;;;;;351483;28;1930;-76
2022/02/01 01:08:50;;;;;;;;;;;;;;;;;;351436;28;1127;-76
2022/02/01 01:09:00;;;;;;;;;;;;;;;;;;351350;28;1879;-76
2022/02/01 01:09:11;;;;;;;;;;;;;;;;;;351261;28;1737;-75
2022/02/01 01:09:21;;;;;;;;;;;;;;;;;;352694;28;1522;-76
2022/02/01 01:09:31;;;;;;;;;;;;;;;;;;352787;28;774;-76
2022/02/01 01:09:41;;;;;;;;;;;;;;;;;;352594;28;999;-76
2022/02/01 01:09:52;;;;;;;;;;;;;;;;;;352824;28;984;-76
2022/02/01 01:10:04;;;;;;;;;;;;;;;;;;352785;28;975;-76
2022/02/01 01:10:14;;;;;;;;;;;;;;;;;;352782;28;988;-76
2022/02/01 01:10:25;;;;;;;;;;;;;;;;;;352710;28;1023;-76
2022/02/01 01:10:35;;;;;;;;;;;;;;;;;;352757;28;928;-76
2022/02/01 01:10:45;;;;;;;;;;;;;;;;;;352630;28;990;-76
2022/02/01 01:10:56;;;;;;;;;;;;;;;;;;352767;28;881;-76
2022/02/01 01:11:06;;;;;;;;;;;;;;;;;;352838;28;837;-76
2022/02/01 01:11:17;;;;;;;;;;;;;;;;;;352797;28;747;-76
2022/02/01 01:11:27;;;;;;;;;;;;;;;;;;352808;28;944;-76
2022/02/01 01:11:37;;;;;;;;;;;;;;;;;;351934;28;1863;-76
2022/02/01 01:11:52;;;;;;;;;;;;;;;;;;351669;28;1764;-76
2022/02/01 01:12:02;;;;;;;;;;;;;;;;;;350865;28;1855;-76
2022/02/01 01:12:13;;;;;;;;;;;;;;;;;;351286;28;1210;-76
2022/02/01 01:12:25;;;;;;;;;;;;;;;;;;351343;28;979;-76
2022/02/01 01:12:44;;;;;;;;;;;;;;;;;;351304;28;960;-76
2022/02/01 01:14:50;;;;;;;;;;;;;;;;;;351399;28;925;-76
2022/02/01 01:15:24;;;;;;;;;;;;;;;;;;351355;28;1027;-76
2022/02/01 01:15:36;;;;;;;;;;;;;;;;;;351405;28;932;-76
2022/02/01 01:16:03;;;;;;;;;;;;;;;;;;351384;28;948;-76
2022/02/01 01:17:08;;;;;;;;;;;;;;;;;;351381;28;953;-76
2022/02/01 01:18:33;;;;;;;;;;;;;;;;;;351349;28;1859;-76
2022/02/01 01:43:49;;;;;;;;;;;;;;;;;;351334;28;818;-76
2022/02/01 01:44:06;;;;;;;;;;;;;;;;;;351304;28;893;-76
2022/02/01 01:44:26;;;;;;;;;;;;;;;;;;351354;28;880;-76
2022/02/01 01:44:47;;;;;;;;;;;;;;;;;;351390;28;991;-76
2022/02/01 01:45:08;;;;;;;;;;;;;;;;;;351394;28;881;-76
2022/02/01 01:45:24;;;;;;;;;;;;;;;;;;351374;28;957;-76
2022/02/01 01:45:45;;;;;;;;;;;;;;;;;;351197;28;1210;-76
2022/02/01 01:53:22;;;;;;;;;;;;;;;;;;344364;28;1012;-76
2022/02/01 01:53:32;;;;;;;;;;;;;;;;;;344334;28;873;-76
2022/02/01 01:53:42;;;;;;;;;;;;;;;;;;344352;28;854;-76
2022/02/01 01:53:53;;;;;;;;;;;;;;;;;;344299;28;874;-76
2022/02/01 01:54:04;;;;;;;;;;;;;;;;;;344273;28;937;-76
2022/02/01 01:54:15;;;;;;;;;;;;;;;;;;344378;28;1068;-76
2022/02/01 01:54:26;;;;;;;;;;;;;;;;;;344298;28;870;-76
2022/02/01 01:54:36;;;;;;;;;;;;;;;;;;344315;28;1910;-76
2022/02/01 01:54:46;;;;;;;;;;;;;;;;;;344413;28;929;-76
2022/02/01 01:54:56;;;;;;;;;;;;;;;;;;344201;28;1846;-76
2022/02/01 01:55:10;;;;;;;;;;;;;;;;;;344331;28;1320;-76
2022/02/01 01:55:21;;;;;;;;;;;;;;;;;;344359;28;803;-76
2022/02/01 01:55:32;;;;;;;;;;;;;;;;;;344363;28;937;-76
2022/02/01 01:55:43;;;;;;;;;;;;;;;;;;344313;28;933;-76
2022/02/01 01:55:54;;;;;;;;;;;;;;;;;;347247;28;1024;-76
2022/02/01 01:56:04;;;;;;;;;;;;;;;;;;351373;28;833;-76
2022/02/01 01:56:15;;;;;;;;;;;;;;;;;;351252;28;893;-76
2022/02/01 01:56:25;;;;;;;;;;;;;;;;;;351313;28;1011;-76
2022/02/01 01:56:36;;;;;;;;;;;;;;;;;;351313;28;948;-76
2022/02/01 01:56:47;;;;;;;;;;;;;;;;;;351374;28;978;-76
2022/02/01 01:56:58;;;;;;;;;;;;;;;;;;351203;28;1902;-76
2022/02/01 01:57:08;;;;;;;;;;;;;;;;;;351398;28;925;-76
2022/02/01 01:57:19;;;;;;;;;;;;;;;;;;351355;28;948;-76
2022/02/01 01:57:30;;;;;;;;;;;;;;;;;;351304;28;925;-76
2022/02/01 01:57:40;;;;;;;;;;;;;;;;;;351341;28;992;-76
2022/02/01 01:57:50;;;;;;;;;;;;;;;;;;351196;28;1007;-76
2022/02/01 01:58:01;;;;;;;;;;;;;;;;;;351390;28;810;-76
2022/02/01 01:58:12;;;;;;;;;;;;;;;;;;351202;28;1022;-76
2022/02/01 01:58:25;;;;;;;;;;;;;;;;;;351314;28;917;-76
2022/02/01 01:58:35;;;;;;;;;;;;;;;;;;351323;28;998;-76
2022/02/01 01:58:45;;;;;;;;;;;;;;;;;;351374;28;900;-76
2022/02/01 01:58:56;;;;;;;;;;;;;;;;;;351313;28;1894;-76
2022/02/01 01:59:07;;;;;;;;;;;;;;;;;;351310;28;1083;-76
2022/02/01 01:59:17;;;;;;;;;;;;;;;;;;351070;28;1254;-76
2022/02/01 01:59:28;;;;;;;;;;;;;;;;;;351357;28;825;-76
2022/02/01 01:59:38;;;;;;;;;;;;;;;;;;351335;28;921;-76
2022/02/01 01:59:48;;;;;;;;;;;;;;;;;;351363;28;937;-76
2022/02/01 01:59:59;;;;;;;;;;;;;;;;;;351336;28;1012;-76
2022/02/01 02:00:21;;;;;;;;;;;;;;;;;;351300;28;834;-76
2022/02/01 02:01:08;;;;;;;;;;;;;;;;;;351236;28;1886;-76
2022/02/01 02:01:19;;;;;;;;;;;;;;;;;;351368;28;976;-76
2022/02/01 02:01:30;;;;;;;;;;;;;;;;;;351349;28;953;-76
2022/02/01 02:01:41;;;;;;;;;;;;;;;;;;351366;28;1004;-76
2022/02/01 02:01:51;;;;;;;;;;;;;;;;;;351258;28;1053;-76
2022/02/01 02:02:02;;;;;;;;;;;;;;;;;;351359;28;988;-75
2022/02/01 02:02:12;;;;;;;;;;;;;;;;;;351364;28;841;-76
2022/02/01 02:02:23;;;;;;;;;;;;;;;;;;351336;28;908;-76
2022/02/01 02:02:33;;;;;;;;;;;;;;;;;;351342;28;979;-76
2022/02/01 02:02:43;;;;;;;;;;;;;;;;;;351252;28;921;-76
2022/02/01 02:02:53;;;;;;;;;;;;;;;;;;351262;28;1906;-75
2022/02/01 02:03:03;;;;;;;;;;;;;;;;;;351285;28;1044;-76
2022/02/01 02:03:14;;;;;;;;;;;;;;;;;;351348;28;936;-76
2022/02/01 02:03:25;;;;;;;;;;;;;;;;;;351367;28;917;-76
2022/02/01 02:03:35;;;;;;;;;;;;;;;;;;351311;28;1109;-76
2022/02/01 02:03:46;;;;;;;;;;;;;;;;;;351140;28;1039;-76
2022/02/01 02:03:56;;;;;;;;;;;;;;;;;;351321;28;995;-76
2022/02/01 02:04:07;;;;;;;;;;;;;;;;;;351338;28;924;-76
2022/02/01 02:04:17;;;;;;;;;;;;;;;;;;351157;28;1122;-76
2022/02/01 02:04:28;;;;;;;;;;;;;;;;;;351265;28;1035;-75
2022/02/01 02:04:38;;;;;;;;;;;;;;;;;;351340;28;920;-76
2022/02/01 02:04:48;;;;;;;;;;;;;;;;;;351172;28;1760;-76
2022/02/01 02:04:58;;;;;;;;;;;;;;;;;;351376;28;920;-75
2022/02/01 02:05:09;;;;;;;;;;;;;;;;;;351293;28;968;-76
2022/02/01 02:05:19;;;;;;;;;;;;;;;;;;351317;28;879;-76
2022/02/01 02:05:29;;;;;;;;;;;;;;;;;;351345;28;991;-76
2022/02/01 02:05:39;;;;;;;;;;;;;;;;;;351323;28;913;-76
2022/02/01 02:05:49;;;;;;;;;;;;;;;;;;351334;28;842;-76
2022/02/01 02:06:00;;;;;;;;;;;;;;;;;;351339;28;917;-76
2022/02/01 02:06:11;;;;;;;;;;;;;;;;;;351323;28;874;-76
2022/02/01 02:06:22;;;;;;;;;;;;;;;;;;351357;28;948;-76
2022/02/01 02:06:32;;;;;;;;;;;;;;;;;;351344;28;861;-76
2022/02/01 02:06:43;;;;;;;;;;;;;;;;;;351386;28;973;-76
2022/02/01 02:06:53;;;;;;;;;;;;;;;;;;351304;28;865;-76
2022/02/01 02:07:03;;;;;;;;;;;;;;;;;;351317;28;920;-76
2022/02/01 02:07:13;;;;;;;;;;;;;;;;;;351323;28;929;-76
2022/02/01 02:07:24;;;;;;;;;;;;;;;;;;351386;28;983;-76
2022/02/01 02:07:34;;;;;;;;;;;;;;;;;;351750;28;1581;-75
2022/02/01 02:07:44;;;;;;;;;;;;;;;;;;352733;28;965;-76
2022/02/01 02:07:54;;;;;;;;;;;;;;;;;;352731;28;932;-76
2022/02/01 02:08:05;;;;;;;;;;;;;;;;;;351703;28;1818;-76
2022/02/01 02:08:15;;;;;;;;;;;;;;;;;;351344;28;924;-76
2022/02/01 02:08:26;;;;;;;;;;;;;;;;;;351362;28;1003;-76
2022/02/01 02:08:36;;;;;;;;;;;;;;;;;;351346;28;913;-76
2022/02/01 02:08:49;;;;;;;;;;;;;;;;;;351314;28;948;-76
2022/02/01 02:09:03;;;;;;;;;;;;;;;;;;351303;28;972;-76
2022/02/01 02:09:13;;;;;;;;;;;;;;;;;;351326;28;969;-76
2022/02/01 02:09:24;;;;;;;;;;;;;;;;;;351331;28;1041;-76
2022/02/01 02:09:34;;;;;;;;;;;;;;;;;;351333;28;1060;-76
2022/02/01 02:09:44;;;;;;;;;;;;;;;;;;351278;28;1019;-76
2022/02/01 02:09:54;;;;;;;;;;;;;;;;;;351350;28;984;-76
2022/02/01 02:10:05;;;;;;;;;;;;;;;;;;351190;28;1882;-75
2022/02/01 02:10:16;;;;;;;;;;;;;;;;;;351715;28;1796;-76
2022/02/01 02:10:31;;;;;;;;;;;;;;;;;;352751;28;975;-76
2022/02/01 02:10:56;;;;;;;;;;;;;;;;;;352269;28;1823;-76
2022/02/01 02:11:11;;;;;;;;;;;;;;;;;;351252;28;1027;-76
2022/02/01 02:11:44;;;;;;;;;;;;;;;;;;351326;28;900;-76
2022/02/01 02:12:06;;;;;;;;;;;;;;;;;;351160;28;1851;-76
2022/02/01 02:12:35;;;;;;;;;;;;;;;;;;351249;28;872;-76
2022/02/01 02:14:17;;;;;;;;;;;;;;;;;;351347;28;865;-76
2022/02/01 02:14:31;;;;;;;;;;;;;;;;;;351334;28;1020;-75
2022/02/01 02:14:43;;;;;;;;;;;;;;;;;;351333;28;944;-76
2022/02/01 02:14:53;;;;;;;;;;;;;;;;;;351278;28;1171;-76
2022/02/01 02:15:04;;;;;;;;;;;;;;;;;;351351;28;952;-76
2022/02/01 02:15:23;;;;;;;;;;;;;;;;;;351193;28;810;-76
2022/02/01 02:15:44;;;;;;;;;;;;;;;;;;351334;28;917;-76
2022/02/01 02:15:59;;;;;;;;;;;;;;;;;;351283;28;1035;-76
2022/02/01 02:16:10;;;;;;;;;;;;;;;;;;351262;28;1050;-75
2022/02/01 02:16:20;;;;;;;;;;;;;;;;;;351321;28;940;-76
2022/02/01 02:16:31;;;;;;;;;;;;;;;;;;351358;28;931;-76
2022/02/01 02:16:43;;;;;;;;;;;;;;;;;;351294;28;1002;-76
2022/02/01 02:16:57;;;;;;;;;;;;;;;;;;351345;28;763;-76
2022/02/01 02:17:07;;;;;;;;;;;;;;;;;;351121;28;1447;-76
2022/02/01 02:17:17;;;;;;;;;;;;;;;;;;351249;28;976;-76
2022/02/01 02:17:27;;;;;;;;;;;;;;;;;;351370;28;924;-76
2022/02/01 02:17:38;;;;;;;;;;;;;;;;;;351333;28;932;-76
2022/02/01 02:17:48;;;;;;;;;;;;;;;;;;351149;28;1011;-76
2022/02/01 02:17:59;;;;;;;;;;;;;;;;;;351197;28;1767;-76
2022/02/01 02:18:09;;;;;;;;;;;;;;;;;;351624;28;1402;-76
2022/02/01 02:18:19;;;;;;;;;;;;;;;;;;351166;28;1620;-76
2022/02/01 02:18:31;;;;;;;;;;;;;;;;;;351883;28;1791;-76
2022/02/01 02:18:41;;;;;;;;;;;;;;;;;;352002;28;1678;-76
2022/02/01 02:18:51;;;;;;;;;;;;;;;;;;351744;28;1654;-75
2022/02/01 02:19:02;;;;;;;;;;;;;;;;;;351752;28;1489;-75
2022/02/01 02:19:13;;;;;;;;;;;;;;;;;;352368;28;1646;-76
2022/02/01 02:19:24;;;;;;;;;;;;;;;;;;352692;28;928;-76
2022/02/01 02:19:34;;;;;;;;;;;;;;;;;;352707;28;911;-76
2022/02/01 02:19:44;;;;;;;;;;;;;;;;;;352753;28;1011;-76
2022/02/01 02:19:54;;;;;;;;;;;;;;;;;;352749;28;943;-76
2022/02/01 02:20:05;;;;;;;;;;;;;;;;;;352543;28;999;-76
2022/02/01 02:20:15;;;;;;;;;;;;;;;;;;352732;28;904;-76
2022/02/01 02:20:25;;;;;;;;;;;;;;;;;;352711;28;991;-76
2022/02/01 02:20:42;;;;;;;;;;;;;;;;;;352752;28;944;-76
2022/02/01 02:20:53;;;;;;;;;;;;;;;;;;352747;28;876;-76
2022/02/01 02:21:04;;;;;;;;;;;;;;;;;;352707;28;860;-76
2022/02/01 02:21:18;;;;;;;;;;;;;;;;;;352558;28;1137;-76
2022/02/01 02:21:28;;;;;;;;;;;;;;;;;;352022;28;1654;-75
2022/02/01 02:21:39;;;;;;;;;;;;;;;;;;352740;28;986;-76
2022/02/01 02:21:51;;;;;;;;;;;;;;;;;;352672;28;1134;-76
2022/02/01 02:22:06;;;;;;;;;;;;;;;;;;352714;28;936;-76
2022/02/01 02:22:17;;;;;;;;;;;;;;;;;;352712;28;1018;-76
2022/02/01 02:22:27;;;;;;;;;;;;;;;;;;352755;28;924;-76
2022/02/01 02:22:37;;;;;;;;;;;;;;;;;;352588;28;1141;-75
2022/02/01 02:22:47;;;;;;;;;;;;;;;;;;352715;28;1015;-76
2022/02/01 02:22:58;;;;;;;;;;;;;;;;;;352684;28;963;-76
2022/02/01 02:23:08;;;;;;;;;;;;;;;;;;352557;28;1760;-75
2022/02/01 02:23:19;;;;;;;;;;;;;;;;;;352754;28;958;-76
2022/02/01 02:23:29;;;;;;;;;;;;;;;;;;352701;28;931;-76
2022/02/01 02:23:40;;;;;;;;;;;;;;;;;;352746;28;853;-76
2022/02/01 02:23:50;;;;;;;;;;;;;;;;;;352701;28;952;-76
2022/02/01 02:24:00;;;;;;;;;;;;;;;;;;352745;28;794;-76
2022/02/01 02:24:10;;;;;;;;;;;;;;;;;;352771;28;908;-76
2022/02/01 02:24:21;;;;;;;;;;;;;;;;;;352680;28;1097;-76
2022/02/01 02:24:33;;;;;;;;;;;;;;;;;;352736;28;983;-75
2022/02/01 02:24:43;;;;;;;;;;;;;;;;;;352697;28;903;-76
2022/02/01 02:24:54;;;;;;;;;;;;;;;;;;352685;28;1102;-76
2022/02/01 02:25:04;;;;;;;;;;;;;;;;;;352761;28;864;-76
2022/02/01 02:25:14;;;;;;;;;;;;;;;;;;352730;28;1003;-75
2022/02/01 02:25:25;;;;;;;;;;;;;;;;;;352507;28;1007;-76
2022/02/01 02:25:36;;;;;;;;;;;;;;;;;;352704;28;891;-76
2022/02/01 02:25:47;;;;;;;;;;;;;;;;;;352703;28;987;-76
2022/02/01 02:25:57;;;;;;;;;;;;;;;;;;352731;28;860;-76
2022/02/01 02:26:11;;;;;;;;;;;;;;;;;;352709;28;943;-76
2022/02/01 02:26:21;;;;;;;;;;;;;;;;;;352744;28;916;-76
2022/02/01 02:26:32;;;;;;;;;;;;;;;;;;352725;28;817;-76
2022/02/01 02:26:43;;;;;;;;;;;;;;;;;;352701;28;1006;-76
2022/02/01 02:26:55;;;;;;;;;;;;;;;;;;352768;28;928;-76
2022/02/01 02:27:06;;;;;;;;;;;;;;;;;;352773;28;959;-76
2022/02/01 02:27:18;;;;;;;;;;;;;;;;;;352524;28;1721;-76
2022/02/01 02:27:28;;;;;;;;;;;;;;;;;;351222;28;1596;-76
2022/02/01 02:27:39;;;;;;;;;;;;;;;;;;351345;28;916;-76
2022/02/01 02:27:49;;;;;;;;;;;;;;;;;;351224;28;976;-76
2022/02/01 02:28:00;;;;;;;;;;;;;;;;;;351332;28;810;-76
2022/02/01 02:28:13;;;;;;;;;;;;;;;;;;351337;28;909;-76
2022/02/01 02:28:24;;;;;;;;;;;;;;;;;;351220;28;1003;-76
2022/02/01 02:28:34;;;;;;;;;;;;;;;;;;351291;28;1058;-76
2022/02/01 02:28:46;;;;;;;;;;;;;;;;;;351359;28;868;-76
2022/02/01 02:28:58;;;;;;;;;;;;;;;;;;351279;28;1515;-75
2022/02/01 02:29:09;;;;;;;;;;;;;;;;;;351279;28;865;-76
2022/02/01 02:29:19;;;;;;;;;;;;;;;;;;351285;28;1656;-76